sensor_id;sensor_type;location;lat;lon;timestamp;P1;durP1;ratioP1;P2;durP2;ratioP2
70253;SDS011;57649;42.968;1.608;2023-09-18T00:00:25;11.50;;;4.03;;
70253;SDS011;57649;42.968;1.608;2023-09-18T00:02:51;10.50;;;3.67;;
70253;SDS011;57649;42.968;1.608;2023-09-18T00:05:16;11.98;;;3.67;;
70253;SDS011;57649;42.968;1.608;2023-09-18T00:07:42;7.25;;;3.65;;
70253;SDS011;57649;42.968;1.608;2023-09-18T00:10:09;6.40;;;3.63;;
70253;SDS011;57649;42.968;1.608;2023-09-18T00:12:35;8.65;;;3.45;;
70253;SDS011;57649;42.968;1.608;2023-09-18T00:15:00;8.60;;;3.95;;
70253;SDS011;57649;42.968;1.608;2023-09-18T00:17:26;8.45;;;3.30;;
70253;SDS011;57649;42.968;1.608;2023-09-18T00:19:51;7.68;;;3.17;;
70253;SDS011;57649;42.968;1.608;2023-09-18T00:22:17;6.28;;;2.95;;
70253;SDS011;57649;42.968;1.608;2023-09-18T00:24:42;8.90;;;3.45;;
70253;SDS011;57649;42.968;1.608;2023-09-18T00:27:08;5.78;;;3.25;;
70253;SDS011;57649;42.968;1.608;2023-09-18T00:29:33;8.07;;;3.05;;
70253;SDS011;57649;42.968;1.608;2023-09-18T00:31:59;5.32;;;3.10;;
70253;SDS011;57649;42.968;1.608;2023-09-18T00:34:24;7.57;;;3.50;;
70253;SDS011;57649;42.968;1.608;2023-09-18T00:36:49;8.63;;;3.17;;
70253;SDS011;57649;42.968;1.608;2023-09-18T00:39:15;10.95;;;3.13;;
70253;SDS011;57649;42.968;1.608;2023-09-18T00:41:40;6.22;;;2.72;;
70253;SDS011;57649;42.968;1.608;2023-09-18T00:44:07;6.60;;;2.90;;
70253;SDS011;57649;42.968;1.608;2023-09-18T00:46:32;7.68;;;2.85;;
70253;SDS011;57649;42.968;1.608;2023-09-18T00:49:00;6.82;;;2.88;;
70253;SDS011;57649;42.968;1.608;2023-09-18T00:51:26;8.57;;;2.63;;
70253;SDS011;57649;42.968;1.608;2023-09-18T00:53:52;8.18;;;2.80;;
70253;SDS011;57649;42.968;1.608;2023-09-18T00:56:17;6.53;;;2.58;;
70253;SDS011;57649;42.968;1.608;2023-09-18T00:58:45;7.60;;;2.83;;
70253;SDS011;57649;42.968;1.608;2023-09-18T01:01:11;7.82;;;2.65;;
70253;SDS011;57649;42.968;1.608;2023-09-18T01:03:39;6.90;;;2.45;;
70253;SDS011;57649;42.968;1.608;2023-09-18T01:06:05;6.28;;;2.53;;
70253;SDS011;57649;42.968;1.608;2023-09-18T01:08:31;5.13;;;2.72;;
70253;SDS011;57649;42.968;1.608;2023-09-18T01:10:58;8.27;;;2.72;;
70253;SDS011;57649;42.968;1.608;2023-09-18T01:13:33;7.20;;;2.38;;
70253;SDS011;57649;42.968;1.608;2023-09-18T01:16:02;6.97;;;2.50;;
70253;SDS011;57649;42.968;1.608;2023-09-18T01:18:49;6.93;;;2.15;;
70253;SDS011;57649;42.968;1.608;2023-09-18T01:21:15;5.47;;;2.17;;
70253;SDS011;57649;42.968;1.608;2023-09-18T01:23:41;4.80;;;2.70;;
70253;SDS011;57649;42.968;1.608;2023-09-18T01:26:09;8.15;;;2.63;;
70253;SDS011;57649;42.968;1.608;2023-09-18T01:28:37;4.82;;;2.70;;
70253;SDS011;57649;42.968;1.608;2023-09-18T01:31:02;6.32;;;2.30;;
70253;SDS011;57649;42.968;1.608;2023-09-18T01:33:47;7.80;;;2.47;;
70253;SDS011;57649;42.968;1.608;2023-09-18T01:36:14;5.53;;;2.60;;
70253;SDS011;57649;42.968;1.608;2023-09-18T01:38:42;5.55;;;2.67;;
70253;SDS011;57649;42.968;1.608;2023-09-18T01:41:09;5.32;;;2.60;;
70253;SDS011;57649;42.968;1.608;2023-09-18T01:43:34;3.60;;;2.38;;
70253;SDS011;57649;42.968;1.608;2023-09-18T01:46:00;6.97;;;2.33;;
70253;SDS011;57649;42.968;1.608;2023-09-18T01:48:25;9.32;;;2.88;;
70253;SDS011;57649;42.968;1.608;2023-09-18T01:50:51;8.52;;;2.72;;
70253;SDS011;57649;42.968;1.608;2023-09-18T01:53:17;4.38;;;2.25;;
70253;SDS011;57649;42.968;1.608;2023-09-18T01:55:44;5.22;;;2.40;;
70253;SDS011;57649;42.968;1.608;2023-09-18T01:58:10;8.63;;;2.75;;
70253;SDS011;57649;42.968;1.608;2023-09-18T02:00:39;7.82;;;2.58;;
70253;SDS011;57649;42.968;1.608;2023-09-18T02:03:04;7.25;;;2.83;;
70253;SDS011;57649;42.968;1.608;2023-09-18T02:05:30;5.22;;;2.75;;
70253;SDS011;57649;42.968;1.608;2023-09-18T02:07:58;6.80;;;2.50;;
70253;SDS011;57649;42.968;1.608;2023-09-18T02:10:26;10.98;;;2.70;;
70253;SDS011;57649;42.968;1.608;2023-09-18T02:12:52;7.82;;;2.78;;
70253;SDS011;57649;42.968;1.608;2023-09-18T02:15:20;6.03;;;2.80;;
70253;SDS011;57649;42.968;1.608;2023-09-18T02:17:45;7.95;;;2.60;;
70253;SDS011;57649;42.968;1.608;2023-09-18T02:20:10;7.30;;;2.65;;
70253;SDS011;57649;42.968;1.608;2023-09-18T02:22:37;9.30;;;3.17;;
70253;SDS011;57649;42.968;1.608;2023-09-18T02:25:04;7.88;;;2.88;;
70253;SDS011;57649;42.968;1.608;2023-09-18T02:27:30;6.35;;;3.13;;
70253;SDS011;57649;42.968;1.608;2023-09-18T02:29:56;7.15;;;2.80;;
70253;SDS011;57649;42.968;1.608;2023-09-18T02:32:21;7.47;;;2.97;;
70253;SDS011;57649;42.968;1.608;2023-09-18T02:34:47;8.32;;;3.40;;
70253;SDS011;57649;42.968;1.608;2023-09-18T02:37:20;5.45;;;2.42;;
70253;SDS011;57649;42.968;1.608;2023-09-18T02:39:45;4.97;;;2.80;;
70253;SDS011;57649;42.968;1.608;2023-09-18T02:42:11;6.93;;;3.05;;
70253;SDS011;57649;42.968;1.608;2023-09-18T02:44:36;6.45;;;2.67;;
70253;SDS011;57649;42.968;1.608;2023-09-18T02:47:07;7.35;;;2.70;;
70253;SDS011;57649;42.968;1.608;2023-09-18T02:49:33;6.88;;;3.00;;
70253;SDS011;57649;42.968;1.608;2023-09-18T02:51:58;8.15;;;2.55;;
70253;SDS011;57649;42.968;1.608;2023-09-18T02:54:23;9.05;;;2.88;;
70253;SDS011;57649;42.968;1.608;2023-09-18T02:56:51;5.97;;;2.72;;
70253;SDS011;57649;42.968;1.608;2023-09-18T02:59:19;6.80;;;2.67;;
70253;SDS011;57649;42.968;1.608;2023-09-18T03:01:56;10.05;;;2.92;;
70253;SDS011;57649;42.968;1.608;2023-09-18T03:04:33;7.20;;;2.60;;
70253;SDS011;57649;42.968;1.608;2023-09-18T03:06:59;5.55;;;2.55;;
70253;SDS011;57649;42.968;1.608;2023-09-18T03:09:24;3.72;;;2.17;;
70253;SDS011;57649;42.968;1.608;2023-09-18T03:11:50;6.63;;;2.53;;
70253;SDS011;57649;42.968;1.608;2023-09-18T03:14:15;6.57;;;2.78;;
70253;SDS011;57649;42.968;1.608;2023-09-18T03:16:40;9.52;;;3.75;;
70253;SDS011;57649;42.968;1.608;2023-09-18T03:19:06;10.63;;;3.47;;
70253;SDS011;57649;42.968;1.608;2023-09-18T03:21:31;5.88;;;2.92;;
70253;SDS011;57649;42.968;1.608;2023-09-18T03:23:58;6.53;;;3.60;;
70253;SDS011;57649;42.968;1.608;2023-09-18T03:26:24;9.40;;;3.00;;
70253;SDS011;57649;42.968;1.608;2023-09-18T03:28:49;6.50;;;2.90;;
70253;SDS011;57649;42.968;1.608;2023-09-18T03:31:15;8.43;;;3.40;;
70253;SDS011;57649;42.968;1.608;2023-09-18T03:33:40;7.18;;;3.08;;
70253;SDS011;57649;42.968;1.608;2023-09-18T03:36:06;7.15;;;3.30;;
70253;SDS011;57649;42.968;1.608;2023-09-18T03:38:32;7.07;;;2.45;;
70253;SDS011;57649;42.968;1.608;2023-09-18T03:41:00;5.25;;;2.42;;
70253;SDS011;57649;42.968;1.608;2023-09-18T03:43:26;6.15;;;2.35;;
70253;SDS011;57649;42.968;1.608;2023-09-18T03:45:51;5.40;;;2.90;;
70253;SDS011;57649;42.968;1.608;2023-09-18T03:48:17;5.70;;;2.70;;
70253;SDS011;57649;42.968;1.608;2023-09-18T03:50:42;4.57;;;2.13;;
70253;SDS011;57649;42.968;1.608;2023-09-18T03:53:08;7.28;;;3.00;;
70253;SDS011;57649;42.968;1.608;2023-09-18T03:55:34;3.88;;;2.35;;
70253;SDS011;57649;42.968;1.608;2023-09-18T03:58:02;7.18;;;2.47;;
70253;SDS011;57649;42.968;1.608;2023-09-18T04:00:29;6.22;;;2.40;;
70253;SDS011;57649;42.968;1.608;2023-09-18T04:02:54;8.05;;;2.88;;
70253;SDS011;57649;42.968;1.608;2023-09-18T04:05:20;5.32;;;2.38;;
70253;SDS011;57649;42.968;1.608;2023-09-18T04:07:45;5.47;;;2.53;;
70253;SDS011;57649;42.968;1.608;2023-09-18T04:10:11;5.80;;;2.13;;
70253;SDS011;57649;42.968;1.608;2023-09-18T04:12:43;4.47;;;2.47;;
70253;SDS011;57649;42.968;1.608;2023-09-18T04:15:11;6.72;;;2.83;;
70253;SDS011;57649;42.968;1.608;2023-09-18T04:17:39;9.63;;;2.60;;
70253;SDS011;57649;42.968;1.608;2023-09-18T04:20:04;7.45;;;2.80;;
70253;SDS011;57649;42.968;1.608;2023-09-18T04:22:31;6.15;;;2.80;;
70253;SDS011;57649;42.968;1.608;2023-09-18T04:24:56;7.88;;;3.05;;
70253;SDS011;57649;42.968;1.608;2023-09-18T04:27:21;6.25;;;2.65;;
70253;SDS011;57649;42.968;1.608;2023-09-18T04:29:47;8.95;;;3.10;;
70253;SDS011;57649;42.968;1.608;2023-09-18T04:32:12;5.70;;;2.70;;
70253;SDS011;57649;42.968;1.608;2023-09-18T04:34:38;7.70;;;3.03;;
70253;SDS011;57649;42.968;1.608;2023-09-18T04:37:04;7.60;;;3.00;;
70253;SDS011;57649;42.968;1.608;2023-09-18T04:39:29;5.35;;;2.90;;
70253;SDS011;57649;42.968;1.608;2023-09-18T04:41:55;8.30;;;3.15;;
70253;SDS011;57649;42.968;1.608;2023-09-18T04:44:20;7.65;;;3.20;;
70253;SDS011;57649;42.968;1.608;2023-09-18T04:46:46;7.00;;;2.95;;
70253;SDS011;57649;42.968;1.608;2023-09-18T04:49:11;5.97;;;3.22;;
70253;SDS011;57649;42.968;1.608;2023-09-18T04:51:37;6.07;;;2.92;;
70253;SDS011;57649;42.968;1.608;2023-09-18T04:54:04;7.68;;;3.13;;
70253;SDS011;57649;42.968;1.608;2023-09-18T04:56:30;8.40;;;2.63;;
70253;SDS011;57649;42.968;1.608;2023-09-18T04:58:55;8.02;;;3.20;;
70253;SDS011;57649;42.968;1.608;2023-09-18T05:01:20;7.50;;;2.80;;
70253;SDS011;57649;42.968;1.608;2023-09-18T05:03:55;6.80;;;3.00;;
70253;SDS011;57649;42.968;1.608;2023-09-18T05:06:21;7.65;;;3.00;;
70253;SDS011;57649;42.968;1.608;2023-09-18T05:08:46;4.78;;;2.92;;
70253;SDS011;57649;42.968;1.608;2023-09-18T05:11:12;6.25;;;2.88;;
70253;SDS011;57649;42.968;1.608;2023-09-18T05:13:43;6.93;;;2.88;;
70253;SDS011;57649;42.968;1.608;2023-09-18T05:16:09;8.02;;;3.40;;
70253;SDS011;57649;42.968;1.608;2023-09-18T05:18:34;8.05;;;3.20;;
70253;SDS011;57649;42.968;1.608;2023-09-18T05:21:00;8.13;;;3.20;;
70253;SDS011;57649;42.968;1.608;2023-09-18T05:23:26;9.23;;;4.10;;
70253;SDS011;57649;42.968;1.608;2023-09-18T05:25:52;6.28;;;3.15;;
70253;SDS011;57649;42.968;1.608;2023-09-18T05:28:18;8.88;;;3.13;;
70253;SDS011;57649;42.968;1.608;2023-09-18T05:30:43;8.48;;;2.80;;
70253;SDS011;57649;42.968;1.608;2023-09-18T05:33:09;9.43;;;3.28;;
70253;SDS011;57649;42.968;1.608;2023-09-18T05:35:35;6.47;;;3.42;;
70253;SDS011;57649;42.968;1.608;2023-09-18T05:38:02;6.45;;;2.95;;
70253;SDS011;57649;42.968;1.608;2023-09-18T05:40:45;9.25;;;3.35;;
70253;SDS011;57649;42.968;1.608;2023-09-18T05:43:13;8.65;;;2.97;;
70253;SDS011;57649;42.968;1.608;2023-09-18T05:45:39;5.35;;;2.38;;
70253;SDS011;57649;42.968;1.608;2023-09-18T05:48:05;10.15;;;3.40;;
70253;SDS011;57649;42.968;1.608;2023-09-18T05:50:31;7.82;;;3.15;;
70253;SDS011;57649;42.968;1.608;2023-09-18T05:52:58;12.02;;;3.40;;
70253;SDS011;57649;42.968;1.608;2023-09-18T05:55:25;8.15;;;3.25;;
70253;SDS011;57649;42.968;1.608;2023-09-18T05:57:52;10.80;;;4.53;;
70253;SDS011;57649;42.968;1.608;2023-09-18T06:00:18;6.50;;;2.92;;
70253;SDS011;57649;42.968;1.608;2023-09-18T06:02:44;9.02;;;4.55;;
70253;SDS011;57649;42.968;1.608;2023-09-18T06:05:10;6.00;;;2.90;;
70253;SDS011;57649;42.968;1.608;2023-09-18T06:07:36;8.18;;;3.15;;
70253;SDS011;57649;42.968;1.608;2023-09-18T06:10:02;10.50;;;4.95;;
70253;SDS011;57649;42.968;1.608;2023-09-18T06:12:30;10.65;;;4.10;;
70253;SDS011;57649;42.968;1.608;2023-09-18T06:14:55;8.45;;;3.30;;
70253;SDS011;57649;42.968;1.608;2023-09-18T06:17:21;6.32;;;3.80;;
70253;SDS011;57649;42.968;1.608;2023-09-18T06:19:47;7.05;;;3.70;;
70253;SDS011;57649;42.968;1.608;2023-09-18T06:22:12;6.97;;;2.80;;
70253;SDS011;57649;42.968;1.608;2023-09-18T06:24:39;10.38;;;3.88;;
70253;SDS011;57649;42.968;1.608;2023-09-18T06:27:04;8.20;;;3.30;;
70253;SDS011;57649;42.968;1.608;2023-09-18T06:29:30;10.25;;;3.40;;
70253;SDS011;57649;42.968;1.608;2023-09-18T06:31:57;7.35;;;3.15;;
70253;SDS011;57649;42.968;1.608;2023-09-18T06:34:22;5.22;;;2.88;;
70253;SDS011;57649;42.968;1.608;2023-09-18T06:36:47;6.10;;;3.50;;
70253;SDS011;57649;42.968;1.608;2023-09-18T06:39:14;5.97;;;3.30;;
70253;SDS011;57649;42.968;1.608;2023-09-18T06:41:40;9.73;;;3.30;;
70253;SDS011;57649;42.968;1.608;2023-09-18T06:44:05;7.75;;;3.58;;
70253;SDS011;57649;42.968;1.608;2023-09-18T06:46:31;5.20;;;3.00;;
70253;SDS011;57649;42.968;1.608;2023-09-18T06:48:56;8.57;;;4.05;;
70253;SDS011;57649;42.968;1.608;2023-09-18T06:51:25;6.72;;;4.18;;
70253;SDS011;57649;42.968;1.608;2023-09-18T06:53:50;7.18;;;3.38;;
70253;SDS011;57649;42.968;1.608;2023-09-18T06:56:16;8.63;;;4.45;;
70253;SDS011;57649;42.968;1.608;2023-09-18T06:58:41;12.02;;;3.63;;
70253;SDS011;57649;42.968;1.608;2023-09-18T07:01:07;7.75;;;3.15;;
70253;SDS011;57649;42.968;1.608;2023-09-18T07:03:32;9.80;;;3.85;;
70253;SDS011;57649;42.968;1.608;2023-09-18T07:06:00;6.72;;;3.20;;
70253;SDS011;57649;42.968;1.608;2023-09-18T07:08:25;7.13;;;3.22;;
70253;SDS011;57649;42.968;1.608;2023-09-18T07:10:51;9.85;;;3.47;;
70253;SDS011;57649;42.968;1.608;2023-09-18T07:13:17;7.53;;;3.78;;
70253;SDS011;57649;42.968;1.608;2023-09-18T07:15:42;6.63;;;2.70;;
70253;SDS011;57649;42.968;1.608;2023-09-18T07:18:09;7.20;;;2.97;;
70253;SDS011;57649;42.968;1.608;2023-09-18T07:20:39;8.18;;;2.80;;
70253;SDS011;57649;42.968;1.608;2023-09-18T07:23:05;13.60;;;3.20;;
70253;SDS011;57649;42.968;1.608;2023-09-18T07:25:30;9.27;;;3.30;;
70253;SDS011;57649;42.968;1.608;2023-09-18T07:27:55;6.70;;;2.83;;
70253;SDS011;57649;42.968;1.608;2023-09-18T07:30:21;11.07;;;4.05;;
70253;SDS011;57649;42.968;1.608;2023-09-18T07:32:47;6.07;;;3.15;;
70253;SDS011;57649;42.968;1.608;2023-09-18T07:35:12;8.73;;;3.25;;
70253;SDS011;57649;42.968;1.608;2023-09-18T07:37:39;8.45;;;3.80;;
70253;SDS011;57649;42.968;1.608;2023-09-18T07:40:05;10.85;;;4.03;;
70253;SDS011;57649;42.968;1.608;2023-09-18T07:42:31;6.55;;;2.90;;
70253;SDS011;57649;42.968;1.608;2023-09-18T07:44:58;5.50;;;2.88;;
70253;SDS011;57649;42.968;1.608;2023-09-18T07:47:23;7.10;;;3.03;;
70253;SDS011;57649;42.968;1.608;2023-09-18T07:49:48;6.03;;;3.05;;
70253;SDS011;57649;42.968;1.608;2023-09-18T07:52:14;8.00;;;2.95;;
70253;SDS011;57649;42.968;1.608;2023-09-18T07:54:40;11.43;;;3.70;;
70253;SDS011;57649;42.968;1.608;2023-09-18T07:57:05;6.00;;;3.10;;
70253;SDS011;57649;42.968;1.608;2023-09-18T07:59:34;8.82;;;3.80;;
70253;SDS011;57649;42.968;1.608;2023-09-18T08:02:04;7.40;;;3.30;;
70253;SDS011;57649;42.968;1.608;2023-09-18T08:04:33;9.27;;;3.25;;
70253;SDS011;57649;42.968;1.608;2023-09-18T08:06:58;7.78;;;3.28;;
70253;SDS011;57649;42.968;1.608;2023-09-18T08:09:25;8.57;;;2.90;;
70253;SDS011;57649;42.968;1.608;2023-09-18T08:11:51;9.70;;;3.00;;
70253;SDS011;57649;42.968;1.608;2023-09-18T08:14:20;7.13;;;2.80;;
70253;SDS011;57649;42.968;1.608;2023-09-18T08:16:46;7.90;;;3.58;;
70253;SDS011;57649;42.968;1.608;2023-09-18T08:19:14;11.18;;;3.38;;
70253;SDS011;57649;42.968;1.608;2023-09-18T08:21:42;7.57;;;3.17;;
70253;SDS011;57649;42.968;1.608;2023-09-18T08:24:07;9.43;;;2.83;;
70253;SDS011;57649;42.968;1.608;2023-09-18T08:26:32;8.05;;;3.25;;
70253;SDS011;57649;42.968;1.608;2023-09-18T08:28:58;7.60;;;3.17;;
70253;SDS011;57649;42.968;1.608;2023-09-18T08:31:23;9.18;;;3.38;;
70253;SDS011;57649;42.968;1.608;2023-09-18T08:33:49;6.45;;;2.75;;
70253;SDS011;57649;42.968;1.608;2023-09-18T08:36:15;9.65;;;3.13;;
70253;SDS011;57649;42.968;1.608;2023-09-18T08:38:41;5.25;;;2.58;;
70253;SDS011;57649;42.968;1.608;2023-09-18T08:41:09;7.25;;;2.88;;
70253;SDS011;57649;42.968;1.608;2023-09-18T08:43:37;5.18;;;2.47;;
70253;SDS011;57649;42.968;1.608;2023-09-18T08:46:07;8.80;;;2.88;;
70253;SDS011;57649;42.968;1.608;2023-09-18T08:48:33;8.48;;;2.63;;
70253;SDS011;57649;42.968;1.608;2023-09-18T08:51:03;5.75;;;2.92;;
70253;SDS011;57649;42.968;1.608;2023-09-18T08:53:30;8.05;;;3.22;;
70253;SDS011;57649;42.968;1.608;2023-09-18T08:55:57;10.25;;;3.60;;
70253;SDS011;57649;42.968;1.608;2023-09-18T08:58:26;6.30;;;2.72;;
70253;SDS011;57649;42.968;1.608;2023-09-18T09:00:53;9.20;;;3.08;;
70253;SDS011;57649;42.968;1.608;2023-09-18T09:03:18;9.88;;;3.22;;
70253;SDS011;57649;42.968;1.608;2023-09-18T09:05:44;9.25;;;2.67;;
70253;SDS011;57649;42.968;1.608;2023-09-18T09:08:09;5.45;;;2.38;;
70253;SDS011;57649;42.968;1.608;2023-09-18T09:10:34;7.53;;;2.88;;
70253;SDS011;57649;42.968;1.608;2023-09-18T09:13:00;9.20;;;3.00;;
70253;SDS011;57649;42.968;1.608;2023-09-18T09:15:47;9.85;;;3.10;;
70253;SDS011;57649;42.968;1.608;2023-09-18T09:18:14;7.15;;;2.20;;
70253;SDS011;57649;42.968;1.608;2023-09-18T09:20:41;4.53;;;2.15;;
70253;SDS011;57649;42.968;1.608;2023-09-18T09:23:07;8.45;;;2.03;;
70253;SDS011;57649;42.968;1.608;2023-09-18T09:25:35;5.18;;;2.58;;
70253;SDS011;57649;42.968;1.608;2023-09-18T09:28:05;7.45;;;2.30;;
70253;SDS011;57649;42.968;1.608;2023-09-18T09:30:32;6.10;;;1.95;;
70253;SDS011;57649;42.968;1.608;2023-09-18T09:33:01;3.20;;;1.73;;
70253;SDS011;57649;42.968;1.608;2023-09-18T09:35:30;11.23;;;2.33;;
70253;SDS011;57649;42.968;1.608;2023-09-18T09:38:07;4.35;;;1.92;;
70253;SDS011;57649;42.968;1.608;2023-09-18T09:40:34;5.15;;;1.85;;
70253;SDS011;57649;42.968;1.608;2023-09-18T09:43:00;5.28;;;1.95;;
70253;SDS011;57649;42.968;1.608;2023-09-18T09:45:27;4.03;;;1.80;;
70253;SDS011;57649;42.968;1.608;2023-09-18T09:48:01;6.45;;;1.90;;
70253;SDS011;57649;42.968;1.608;2023-09-18T09:50:29;7.45;;;4.30;;
70253;SDS011;57649;42.968;1.608;2023-09-18T09:52:55;9.07;;;4.40;;
70253;SDS011;57649;42.968;1.608;2023-09-18T09:55:28;4.70;;;2.10;;
70253;SDS011;57649;42.968;1.608;2023-09-18T10:00:25;5.53;;;1.90;;
70253;SDS011;57649;42.968;1.608;2023-09-18T10:03:01;4.25;;;2.00;;
70253;SDS011;57649;42.968;1.608;2023-09-18T10:05:34;6.82;;;2.47;;
70253;SDS011;57649;42.968;1.608;2023-09-18T10:08:06;5.80;;;1.65;;
70253;SDS011;57649;42.968;1.608;2023-09-18T10:10:35;6.30;;;2.28;;
70253;SDS011;57649;42.968;1.608;2023-09-18T10:15:59;4.70;;;1.63;;
70253;SDS011;57649;42.968;1.608;2023-09-18T10:26:39;3.83;;;1.83;;
70253;SDS011;57649;42.968;1.608;2023-09-18T10:29:12;5.28;;;2.00;;
70253;SDS011;57649;42.968;1.608;2023-09-18T10:31:39;3.25;;;1.70;;
70253;SDS011;57649;42.968;1.608;2023-09-18T10:34:07;4.95;;;2.08;;
70253;SDS011;57649;42.968;1.608;2023-09-18T10:36:34;9.88;;;2.58;;
70253;SDS011;57649;42.968;1.608;2023-09-18T10:39:00;4.63;;;2.00;;
70253;SDS011;57649;42.968;1.608;2023-09-18T10:41:27;5.55;;;2.08;;
70253;SDS011;57649;42.968;1.608;2023-09-18T10:43:53;6.07;;;1.92;;
70253;SDS011;57649;42.968;1.608;2023-09-18T10:46:22;3.83;;;1.92;;
70253;SDS011;57649;42.968;1.608;2023-09-18T10:48:49;3.63;;;1.73;;
70253;SDS011;57649;42.968;1.608;2023-09-18T10:51:15;5.05;;;2.10;;
70253;SDS011;57649;42.968;1.608;2023-09-18T10:53:47;6.55;;;2.25;;
70253;SDS011;57649;42.968;1.608;2023-09-18T10:56:14;5.63;;;2.08;;
70253;SDS011;57649;42.968;1.608;2023-09-18T10:58:41;4.80;;;2.00;;
70253;SDS011;57649;42.968;1.608;2023-09-18T11:01:09;7.15;;;1.80;;
70253;SDS011;57649;42.968;1.608;2023-09-18T11:03:38;5.82;;;1.75;;
70253;SDS011;57649;42.968;1.608;2023-09-18T11:06:06;7.32;;;2.47;;
70253;SDS011;57649;42.968;1.608;2023-09-18T11:08:35;4.72;;;1.90;;
70253;SDS011;57649;42.968;1.608;2023-09-18T11:11:09;8.07;;;2.45;;
70253;SDS011;57649;42.968;1.608;2023-09-18T11:13:39;7.45;;;3.38;;
70253;SDS011;57649;42.968;1.608;2023-09-18T11:18:53;5.68;;;2.17;;
70253;SDS011;57649;42.968;1.608;2023-09-18T11:21:23;6.05;;;2.20;;
70253;SDS011;57649;42.968;1.608;2023-09-18T11:24:03;5.05;;;2.08;;
70253;SDS011;57649;42.968;1.608;2023-09-18T11:26:46;4.88;;;2.03;;
70253;SDS011;57649;42.968;1.608;2023-09-18T11:29:22;3.63;;;1.98;;
70253;SDS011;57649;42.968;1.608;2023-09-18T11:34:25;4.30;;;1.88;;
70253;SDS011;57649;42.968;1.608;2023-09-18T11:37:22;5.18;;;1.80;;
70253;SDS011;57649;42.968;1.608;2023-09-18T11:39:50;6.07;;;2.30;;
70253;SDS011;57649;42.968;1.608;2023-09-18T11:42:19;4.25;;;1.75;;
70253;SDS011;57649;42.968;1.608;2023-09-18T11:44:53;5.75;;;2.38;;
70253;SDS011;57649;42.968;1.608;2023-09-18T11:47:23;5.53;;;2.05;;
70253;SDS011;57649;42.968;1.608;2023-09-18T11:49:50;4.25;;;1.90;;
70253;SDS011;57649;42.968;1.608;2023-09-18T11:52:26;5.22;;;2.08;;
70253;SDS011;57649;42.968;1.608;2023-09-18T11:54:55;5.32;;;2.08;;
70253;SDS011;57649;42.968;1.608;2023-09-18T11:57:22;5.53;;;2.05;;
70253;SDS011;57649;42.968;1.608;2023-09-18T11:59:49;4.82;;;1.95;;
70253;SDS011;57649;42.968;1.608;2023-09-18T12:02:27;6.78;;;2.00;;
70253;SDS011;57649;42.968;1.608;2023-09-18T12:05:15;6.25;;;1.90;;
70253;SDS011;57649;42.968;1.608;2023-09-18T12:07:43;3.90;;;1.83;;
70253;SDS011;57649;42.968;1.608;2023-09-18T12:10:10;4.85;;;1.83;;
70253;SDS011;57649;42.968;1.608;2023-09-18T12:12:37;5.00;;;2.00;;
70253;SDS011;57649;42.968;1.608;2023-09-18T12:15:03;3.45;;;2.00;;
70253;SDS011;57649;42.968;1.608;2023-09-18T12:17:29;5.45;;;2.20;;
70253;SDS011;57649;42.968;1.608;2023-09-18T12:19:54;4.60;;;2.08;;
70253;SDS011;57649;42.968;1.608;2023-09-18T12:22:26;4.28;;;1.85;;
70253;SDS011;57649;42.968;1.608;2023-09-18T12:24:53;7.35;;;2.42;;
70253;SDS011;57649;42.968;1.608;2023-09-18T12:27:19;7.47;;;2.08;;
70253;SDS011;57649;42.968;1.608;2023-09-18T12:29:45;5.07;;;2.10;;
70253;SDS011;57649;42.968;1.608;2023-09-18T12:32:11;5.40;;;1.80;;
70253;SDS011;57649;42.968;1.608;2023-09-18T12:34:42;5.53;;;1.80;;
70253;SDS011;57649;42.968;1.608;2023-09-18T12:37:08;3.88;;;1.90;;
70253;SDS011;57649;42.968;1.608;2023-09-18T12:39:37;7.20;;;2.13;;
70253;SDS011;57649;42.968;1.608;2023-09-18T12:42:02;4.38;;;1.85;;
70253;SDS011;57649;42.968;1.608;2023-09-18T12:44:29;3.38;;;1.67;;
70253;SDS011;57649;42.968;1.608;2023-09-18T12:46:54;5.32;;;1.75;;
70253;SDS011;57649;42.968;1.608;2023-09-18T12:49:20;4.88;;;2.20;;
70253;SDS011;57649;42.968;1.608;2023-09-18T12:51:54;4.47;;;1.90;;
70253;SDS011;57649;42.968;1.608;2023-09-18T12:54:37;7.45;;;2.90;;
70253;SDS011;57649;42.968;1.608;2023-09-18T12:57:10;5.03;;;1.70;;
70253;SDS011;57649;42.968;1.608;2023-09-18T13:02:05;6.07;;;2.07;;
70253;SDS011;57649;42.968;1.608;2023-09-18T13:04:32;6.50;;;1.80;;
70253;SDS011;57649;42.968;1.608;2023-09-18T13:07:11;5.32;;;2.13;;
70253;SDS011;57649;42.968;1.608;2023-09-18T13:09:38;6.55;;;2.03;;
70253;SDS011;57649;42.968;1.608;2023-09-18T13:12:05;5.78;;;1.90;;
70253;SDS011;57649;42.968;1.608;2023-09-18T13:14:56;5.60;;;2.35;;
70253;SDS011;57649;42.968;1.608;2023-09-18T13:17:24;5.85;;;2.25;;
70253;SDS011;57649;42.968;1.608;2023-09-18T13:19:49;3.03;;;1.77;;
70253;SDS011;57649;42.968;1.608;2023-09-18T13:22:24;4.57;;;2.40;;
70253;SDS011;57649;42.968;1.608;2023-09-18T13:24:57;4.82;;;2.00;;
70253;SDS011;57649;42.968;1.608;2023-09-18T13:27:22;5.40;;;2.35;;
70253;SDS011;57649;42.968;1.608;2023-09-18T13:29:48;6.55;;;2.25;;
70253;SDS011;57649;42.968;1.608;2023-09-18T13:32:14;4.25;;;1.85;;
70253;SDS011;57649;42.968;1.608;2023-09-18T13:34:39;6.15;;;1.65;;
70253;SDS011;57649;42.968;1.608;2023-09-18T13:37:05;6.15;;;2.28;;
70253;SDS011;57649;42.968;1.608;2023-09-18T13:39:30;4.47;;;2.10;;
70253;SDS011;57649;42.968;1.608;2023-09-18T13:41:56;6.65;;;2.13;;
70253;SDS011;57649;42.968;1.608;2023-09-18T13:44:21;6.00;;;2.22;;
70253;SDS011;57649;42.968;1.608;2023-09-18T13:46:47;4.63;;;1.80;;
70253;SDS011;57649;42.968;1.608;2023-09-18T13:49:12;4.63;;;1.90;;
70253;SDS011;57649;42.968;1.608;2023-09-18T13:51:38;6.03;;;1.80;;
70253;SDS011;57649;42.968;1.608;2023-09-18T13:54:03;5.13;;;2.10;;
70253;SDS011;57649;42.968;1.608;2023-09-18T13:56:29;5.93;;;1.98;;
70253;SDS011;57649;42.968;1.608;2023-09-18T13:58:55;6.00;;;2.20;;
70253;SDS011;57649;42.968;1.608;2023-09-18T14:01:21;4.70;;;1.92;;
70253;SDS011;57649;42.968;1.608;2023-09-18T14:03:47;3.42;;;1.70;;
70253;SDS011;57649;42.968;1.608;2023-09-18T14:06:13;3.70;;;2.03;;
70253;SDS011;57649;42.968;1.608;2023-09-18T14:08:38;4.40;;;1.88;;
70253;SDS011;57649;42.968;1.608;2023-09-18T14:11:05;4.07;;;1.60;;
70253;SDS011;57649;42.968;1.608;2023-09-18T14:13:31;8.65;;;1.90;;
70253;SDS011;57649;42.968;1.608;2023-09-18T14:15:57;2.75;;;1.20;;
70253;SDS011;57649;42.968;1.608;2023-09-18T14:18:23;7.15;;;1.45;;
70253;SDS011;57649;42.968;1.608;2023-09-18T14:20:49;3.40;;;1.25;;
70253;SDS011;57649;42.968;1.608;2023-09-18T14:23:14;3.55;;;1.05;;
70253;SDS011;57649;42.968;1.608;2023-09-18T14:25:39;2.95;;;1.02;;
70253;SDS011;57649;42.968;1.608;2023-09-18T14:28:06;4.18;;;1.02;;
70253;SDS011;57649;42.968;1.608;2023-09-18T14:30:32;2.45;;;1.10;;
70253;SDS011;57649;42.968;1.608;2023-09-18T14:32:58;2.20;;;1.05;;
70253;SDS011;57649;42.968;1.608;2023-09-18T14:35:26;2.90;;;1.00;;
70253;SDS011;57649;42.968;1.608;2023-09-18T14:37:52;2.78;;;0.98;;
70253;SDS011;57649;42.968;1.608;2023-09-18T14:40:17;3.40;;;1.58;;
70253;SDS011;57649;42.968;1.608;2023-09-18T14:42:46;3.50;;;1.25;;
70253;SDS011;57649;42.968;1.608;2023-09-18T14:45:11;5.00;;;1.27;;
70253;SDS011;57649;42.968;1.608;2023-09-18T14:47:37;2.97;;;1.00;;
70253;SDS011;57649;42.968;1.608;2023-09-18T14:50:03;4.90;;;2.80;;
70253;SDS011;57649;42.968;1.608;2023-09-18T14:52:30;1.98;;;1.05;;
70253;SDS011;57649;42.968;1.608;2023-09-18T14:54:57;3.15;;;1.40;;
70253;SDS011;57649;42.968;1.608;2023-09-18T14:57:22;2.17;;;1.17;;
70253;SDS011;57649;42.968;1.608;2023-09-18T14:59:48;3.38;;;1.33;;
70253;SDS011;57649;42.968;1.608;2023-09-18T15:02:13;8.77;;;2.90;;
70253;SDS011;57649;42.968;1.608;2023-09-18T15:04:43;2.88;;;1.30;;
70253;SDS011;57649;42.968;1.608;2023-09-18T15:07:08;2.33;;;1.38;;
70253;SDS011;57649;42.968;1.608;2023-09-18T15:09:35;5.10;;;1.40;;